Address 0xd676432a77cfe7bbf5a048e375557cc18e295ae7

Txn Hash Method
Block
From
To
Value [Txn Fee]
0x2920c4b5e26b6e420c5065d7185c40727dd01d67e81ffb25e6284d561ad5b870Swap Exact Token...174966392023-01-31 7:47:381 min ago0xd676432a77cfe7bbf5a048e375557cc18e295ae7OUT 0x1421bde4b10e8dd459b3bcb598810b1337d568420 CELO0.00453308604
0x946aad75e30d767ae1f01e853e0335e01b148caad67d168b62ad0ae1ae0d0b7cSwap Exact Token...174966382023-01-31 7:47:331 min ago0xd676432a77cfe7bbf5a048e375557cc18e295ae7OUT 0x1421bde4b10e8dd459b3bcb598810b1337d568420 CELO0.003165933375
0x8a1f800dd34343360d783bf5163f86699914a5a84b9d96f1059bedd0fe71943eSwap Exact Token...174966372023-01-31 7:47:281 min ago0xd676432a77cfe7bbf5a048e375557cc18e295ae7OUT 0x1421bde4b10e8dd459b3bcb598810b1337d568420 CELO0.002686014705
0x84ac8cd02b7c503543c9ea02789a51527876f5fee702b8cb1f6848a5e876611dSwap Exact Token...174966372023-01-31 7:47:281 min ago0xd676432a77cfe7bbf5a048e375557cc18e295ae7OUT 0x1421bde4b10e8dd459b3bcb598810b1337d568420 CELO0.00318501783
0x0ba061c71c1402b82fb32b6a6bfa50f5b34470b4be210fd04b9638262fa6f138Swap Exact Token...174966372023-01-31 7:47:281 min ago0xd676432a77cfe7bbf5a048e375557cc18e295ae7OUT 0x1421bde4b10e8dd459b3bcb598810b1337d568420 CELO0.002684469405
0x0928c33da8d91902a36148851f597d87efc7e85b003dc4f5fa35b6a01c914b74Swap Exact Token...174966332023-01-31 7:47:081 min ago0xd676432a77cfe7bbf5a048e375557cc18e295ae7OUT 0x1421bde4b10e8dd459b3bcb598810b1337d568420 CELO0.002686014705
0x7e12c85a0d6361409e161de1a2c37d2b7ccc472c7067664c28959fe5b8cfac80Swap Exact Token...174954792023-01-31 6:10:581 hr 37 mins ago0xd676432a77cfe7bbf5a048e375557cc18e295ae7OUT 0x1421bde4b10e8dd459b3bcb598810b1337d568420 CELO0.002684005815
0xce170b0a307a754e83a940565acc4d5b502b0111e403d151f9c1607ec335b9860x62598fb3174953552023-01-31 6:00:381 hr 48 mins ago0xd676432a77cfe7bbf5a048e375557cc18e295ae7OUT0x4b19240bc722d2f367a2df36fc38aea7b4533f5c0 CELO0.00068003502
0x1c6ea5e51d04e6b3019d674e51ee97231b423b94c2e10c0e406a8f34d5a123330x62598fb3174953482023-01-31 6:00:031 hr 48 mins ago0xd676432a77cfe7bbf5a048e375557cc18e295ae7OUT0x4b19240bc722d2f367a2df36fc38aea7b4533f5c0 CELO0.00068003502
0xa8e003440d6c4a296f514e70f9458687dd1e54061486c3a184adba70cd8159680x62598fb3174953452023-01-31 5:59:481 hr 48 mins ago0xd676432a77cfe7bbf5a048e375557cc18e295ae7OUT0x4b19240bc722d2f367a2df36fc38aea7b4533f5c0 CELO0.00063388206
0xe941b9c02a3849502c8ee3875ede3c7cc044d6abb7658b8669095c7aaaf6a1660x62598fb3174953452023-01-31 5:59:481 hr 48 mins ago0xd676432a77cfe7bbf5a048e375557cc18e295ae7OUT0x4b19240bc722d2f367a2df36fc38aea7b4533f5c0 CELO0.000633573
0x87d02cd75d907e6658f3bee3c30e73a8db2e50946e78235cc180b4541cac8e980x62598fb3174953332023-01-31 5:58:481 hr 49 mins ago0xd676432a77cfe7bbf5a048e375557cc18e295ae7OUT0x4b19240bc722d2f367a2df36fc38aea7b4533f5c0 CELO0.00063388206
0x3a99c3d1735034bf2457c474365ee7caf646fad15cf1ac3a2f5d0339eda0e4e00x62598fb3174953322023-01-31 5:58:431 hr 50 mins ago0xd676432a77cfe7bbf5a048e375557cc18e295ae7OUT0x4b19240bc722d2f367a2df36fc38aea7b4533f5c0 CELO0.00068003502
0x3ddad98619814a24d1d0c1b184e781260427f2cdb32492fddfbecd7171823833Swap Exact Token...174953262023-01-31 5:58:131 hr 50 mins ago0xd676432a77cfe7bbf5a048e375557cc18e295ae7OUT 0x1421bde4b10e8dd459b3bcb598810b1337d568420 CELO0.002684108835
0xb776f54512c4960320d7ba406f6afdbf008f8a6499420b33f670f7f3173917b8Swap Exact Token...174953262023-01-31 5:58:131 hr 50 mins ago0xd676432a77cfe7bbf5a048e375557cc18e295ae7OUT 0x1421bde4b10e8dd459b3bcb598810b1337d568420 CELO0.003243043845
0x3f5114e1e71bf5fad68b36b9fdcd7f87d274a91d941fe6a39a2395448f91738aSwap Exact Token...174953242023-01-31 5:58:031 hr 50 mins ago0xd676432a77cfe7bbf5a048e375557cc18e295ae7OUT 0x1421bde4b10e8dd459b3bcb598810b1337d568420 CELO0.004569786915
0x895f0e1d0ef63ea4734f7a85da4d151c3142e3a93656ba9abb083255f5ea4b410x62598fb3174931232023-01-31 2:54:384 hrs 54 mins ago0xd676432a77cfe7bbf5a048e375557cc18e295ae7OUT0x4b19240bc722d2f367a2df36fc38aea7b4533f5c0 CELO0.0006778716
0x755e300b0bce026a19c22af86e5ec260d7c2b5bfd8e427ecaa825937412d6a650x62598fb3174931202023-01-31 2:54:234 hrs 54 mins ago0xd676432a77cfe7bbf5a048e375557cc18e295ae7OUT0x4b19240bc722d2f367a2df36fc38aea7b4533f5c0 CELO0.0006778716
0x2c807506a337ba634f4f3f673438475d38011730e0cc128d32bb5f662b9646fb0x62598fb3174931172023-01-31 2:54:084 hrs 54 mins ago0xd676432a77cfe7bbf5a048e375557cc18e295ae7OUT0x4b19240bc722d2f367a2df36fc38aea7b4533f5c0 CELO0.0006778716
0x90ffe60fbd188171a77184f357b2d44fe10e380b1951a1210859718351b8c40f0x62598fb3174931142023-01-31 2:53:534 hrs 54 mins ago0xd676432a77cfe7bbf5a048e375557cc18e295ae7OUT0x4b19240bc722d2f367a2df36fc38aea7b4533f5c0 CELO0.0006778716
0xb270944e3de3c98d2fb10db54a9575a6eff86267615916864a136ed12be9ce640x62598fb3174931122023-01-31 2:53:434 hrs 55 mins ago0xd676432a77cfe7bbf5a048e375557cc18e295ae7OUT0x4b19240bc722d2f367a2df36fc38aea7b4533f5c0 CELO0.0006778716
0x2ac7db683adb894368f99ad47a1f8cf3c6fb96912a1cdd5f67d8e9f0abdefed10x62598fb3174931112023-01-31 2:53:384 hrs 55 mins ago0xd676432a77cfe7bbf5a048e375557cc18e295ae7OUT0x4b19240bc722d2f367a2df36fc38aea7b4533f5c0 CELO0.0006778716
0xdc4600da23dbc7afbeda8dfef24ffd8ff4ee83698c0670772fde20c3856b22a50x62598fb3174926902023-01-31 2:18:335 hrs 30 mins ago0xd676432a77cfe7bbf5a048e375557cc18e295ae7OUT0x4b19240bc722d2f367a2df36fc38aea7b4533f5c0 CELO0.0006778716
0xbf60b2b80aaed3e336317077d23430a24ccdcf59386d18f4cb8c5693600460970x62598fb3174926642023-01-31 2:16:235 hrs 32 mins ago0xd676432a77cfe7bbf5a048e375557cc18e295ae7OUT0x4b19240bc722d2f367a2df36fc38aea7b4533f5c0 CELO0.0006778716
0x216977da6b71b05efa739956859e5c3c7d46ffeea1500a3cac925ebf3b7bb4940x62598fb3174926602023-01-31 2:16:035 hrs 32 mins ago0xd676432a77cfe7bbf5a048e375557cc18e295ae7OUT0x4b19240bc722d2f367a2df36fc38aea7b4533f5c0 CELO0.0006778716
[ Download CSV Export 
Parent Txn Hash Block From To Value
Loading

Contract Name:
0

Compiler Version
0

Optimization Enabled:
0

Other Settings:
-NA-
Block Transaction Gas Used Reward
Age Block Fee Address BC Fee Address Voting Power Jailed Incoming
Block Uncle Number Difficulty Gas Used Reward
Loading
Make sure to use the "Vote Down" button for any spammy posts, and the "Vote Up" for interesting conversations.